WetterOnline ( https://www.wetteronline.ch )

Wetter aktuell Harzgerode

Aktuelles Wetter: Harzgerode (405m)

6-stündlich | Neueste Meldungen
Ortszeit Temperatur Wetter
Fr, 27.11. 19:00 3.2° C bedeckt
Fr, 27.11. 13:00 5.6° C bedeckt
Fr, 27.11. 7:00 4.9° C Nebel
Fr, 27.11. 1:00 3.7° C bedeckt
Do, 26.11. 19:00 4.4° C leicht bewölkt
Do, 26.11. 13:00 8.9° C leicht bewölkt
Do, 26.11. 7:00 3.0° C bewölkt
Do, 26.11. 1:00 2.6° C wolkig
Ortszeit Temperatur Wetter
Fr, 27.11. 23:00 1.6° C Nebel
Fr, 27.11. 22:50 1.6° C Nebel
Fr, 27.11. 22:40 1.6° C Nebel
Fr, 27.11. 22:30 1.8° C Nebel
Fr, 27.11. 22:20 1.8° C Nebel
Fr, 27.11. 22:10 1.9° C Nebel
Fr, 27.11. 22:00 2.0° C Nebel
Fr, 27.11. 21:30 2.2° C bedeckt
Fr, 27.11. 21:00 2.4° C bedeckt
Fr, 27.11. 20:30 2.6° C bedeckt
Fr, 27.11. 20:00 2.7° C bedeckt
Ortszeit Relative Feuchte Sichtweite
Fr, 27.11. 19:00 99% 1.9 km
Fr, 27.11. 13:00 97% 6 km
Fr, 27.11. 7:00 99% <100 m
Fr, 27.11. 1:00 97% 8 km
Do, 26.11. 19:00 92% 23 km
Do, 26.11. 13:00 79% 23 km
Do, 26.11. 7:00 97% 5.0 km
Do, 26.11. 1:00 95% 6 km
Ortszeit Relative Feuchte Sichtweite
Fr, 27.11. 23:00 100% 100 m
Fr, 27.11. 22:50 100% -
Fr, 27.11. 22:40 100% -
Fr, 27.11. 22:30 99% 0.2 km
Fr, 27.11. 22:20 99% -
Fr, 27.11. 22:10 99% -
Fr, 27.11. 22:00 99% 100 m
Fr, 27.11. 21:30 96% 1.8 km
Fr, 27.11. 21:00 97% 1.5 km
Fr, 27.11. 20:30 97% 1.9 km
Fr, 27.11. 20:00 97% 2.3 km
Ortszeit Niederschlagsmenge Niederschlagsart
Fr, 27.11. 19:00 0.0 l/m2 in 12 Std. -
Fr, 27.11. 13:00 0.0 l/m2 in 6 Std. -
Fr, 27.11. 7:00 0.1 l/m2 in 12 Std. Sprühregen
Fr, 27.11. 1:00 0.0 l/m2 in 6 Std. -
Do, 26.11. 19:00 0.0 l/m2 in 12 Std. -
Do, 26.11. 13:00 0.0 l/m2 in 6 Std. -
Do, 26.11. 7:00 0.0 l/m2 in 12 Std. -
Do, 26.11. 1:00 0.0 l/m2 in 6 Std. -
Ortszeit Niederschlagsmenge Niederschlagsart
Fr, 27.11. 23:00 0.0 l/m2 in 1 Std. -
Fr, 27.11. 22:50 keine Meldung -
Fr, 27.11. 22:40 keine Meldung -
Fr, 27.11. 22:30 0.0 l/m2 in 1 Std. -
Fr, 27.11. 22:20 keine Meldung -
Fr, 27.11. 22:10 keine Meldung -
Fr, 27.11. 22:00 0.0 l/m2 in 1 Std. -
Fr, 27.11. 21:30 0.0 l/m2 in 1 Std. -
Fr, 27.11. 21:00 0.0 l/m2 in 1 Std. -
Fr, 27.11. 20:30 0.0 l/m2 in 1 Std. -
Fr, 27.11. 20:00 0.0 l/m2 in 1 Std. -
Ortszeit Stärke Spitze Richtung
km/h Bft. km/h Grad Sektor
Fr, 27.11. 19:00 7 2 15 120° SO
Fr, 27.11. 13:00 4 1 11 130° SO
Fr, 27.11. 7:00 0 0 11 - -
Fr, 27.11. 1:00 9 2 13 240° SW
Do, 26.11. 19:00 4 1 36 210° SW
Do, 26.11. 13:00 22 4 36 240° SW
Do, 26.11. 7:00 18 3 29 240° SW
Do, 26.11. 1:00 17 3 31 260° W
Ortszeit Stärke Spitze Richtung
km/h Bft. km/h Grad Sektor
Fr, 27.11. 23:00 7 2 14 120° SO
Fr, 27.11. 22:50 7 2 - 120° SO
Fr, 27.11. 22:40 7 2 - 120° SO
Fr, 27.11. 22:30 7 2 7 180° S
Fr, 27.11. 22:20 7 2 - 180° S
Fr, 27.11. 22:10 6 1 - 200° S
Fr, 27.11. 22:00 6 1 9 190° S
Fr, 27.11. 21:30 4 1 7 150° SO
Fr, 27.11. 21:00 4 1 11 120° SO
Fr, 27.11. 20:30 7 2 11 110° O
Fr, 27.11. 20:00 7 2 14 90° O
Ortszeit Untergrenze Bedeckung Gattung
total tief tief mittel hoch
Fr, 27.11. 19:00 30 m 8/8 8/8 - - -
Fr, 27.11. 13:00 60 m 8/8 8/8 - - -
Fr, 27.11. 7:00 <30 m 8/8 0/8 - - -
Fr, 27.11. 1:00 180 m 8/8 8/8 - - -
Do, 26.11. 19:00 1380 m 3/8 3/8 - - -
Do, 26.11. 13:00 1200 m 3/8 3/8 - - -
Do, 26.11. 7:00 780 m 7/8 6/8 - - -
Do, 26.11. 1:00 120 m 6/8 6/8 - - -
Ortszeit Bedeckungsgrad in Achtel und Wolkenuntergrenze
Fr, 27.11. 23:00 8(<30m)
Fr, 27.11. 22:50 8(<30m)
Fr, 27.11. 22:40 8(<30m)
Fr, 27.11. 22:30 8(<30m)
Fr, 27.11. 22:20 8(<30m)
Fr, 27.11. 22:10 8(<30m)
Fr, 27.11. 22:00 8(30m)
Fr, 27.11. 21:30 8(30m)
Fr, 27.11. 21:00 8(60m)
Fr, 27.11. 20:30 8(30m)
Fr, 27.11. 20:00 8(60m)
Ortszeit Luftdruck NN (hPa) Tendenz (hPa in 3 Std.)
Fr, 27.11. 19:00 1023 + 0,9
Fr, 27.11. 13:00 1021 - 0,3
Fr, 27.11. 7:00 1021 + 0,1
Fr, 27.11. 1:00 1022 - 0,3
Do, 26.11. 19:00 1022 + 0,6
Do, 26.11. 13:00 1020 - 0,4
Do, 26.11. 7:00 1021 0,0
Do, 26.11. 1:00 1022 + 0,9
Ortszeit Luftdruck NN (hPa) Tendenz (hPa in 3 Std.)
Fr, 27.11. 23:00 1023 - 0,2
Fr, 27.11. 22:50 1023 keine Meldung
Fr, 27.11. 22:40 1023 keine Meldung
Fr, 27.11. 22:30 1023 - 0,2
Fr, 27.11. 22:20 1023 keine Meldung
Fr, 27.11. 22:10 1023 keine Meldung
Fr, 27.11. 22:00 1023 0,0
Fr, 27.11. 21:30 1023 + 0,3
Fr, 27.11. 21:00 1023 + 0,4
Fr, 27.11. 20:30 1023 + 0,6
Fr, 27.11. 20:00 1023 + 0,9
Ortszeit Schneehöhe (cm)
Fr, 27.11. 19:00 0
Fr, 27.11. 13:00 0
Fr, 27.11. 7:00 0
Fr, 27.11. 1:00 0
Do, 26.11. 19:00 0
Do, 26.11. 13:00 0
Do, 26.11. 7:00 0
Do, 26.11. 1:00 0
Ortszeit Schneehöhe (cm)
Fr, 27.11. 23:00 0
Fr, 27.11. 22:50 0
Fr, 27.11. 22:40 0
Fr, 27.11. 22:30 0
Fr, 27.11. 22:20 0
Fr, 27.11. 22:10 0
Fr, 27.11. 22:00 0
Fr, 27.11. 21:30 0
Fr, 27.11. 21:00 0
Fr, 27.11. 20:30 0
Fr, 27.11. 20:00 0
Link zu dieser Seite / Seite empfehlen

Das Wetter in ...